sensor_id;sensor_type;location;lat;lon;timestamp;P1;durP1;ratioP1;P2;durP2;ratioP2
16440;SDS011;8330;-33.858;151.184;2023-03-21T00:02:15;8.05;;;1.88;;
16440;SDS011;8330;-33.858;151.184;2023-03-21T00:04:45;7.07;;;1.67;;
16440;SDS011;8330;-33.858;151.184;2023-03-21T00:07:16;7.40;;;1.33;;
16440;SDS011;8330;-33.858;151.184;2023-03-21T00:09:47;9.00;;;1.55;;
16440;SDS011;8330;-33.858;151.184;2023-03-21T00:12:18;7.72;;;1.50;;
16440;SDS011;8330;-33.858;151.184;2023-03-21T00:14:49;9.20;;;2.10;;
16440;SDS011;8330;-33.858;151.184;2023-03-21T00:17:23;5.25;;;1.45;;
16440;SDS011;8330;-33.858;151.184;2023-03-21T00:19:57;7.18;;;1.30;;
16440;SDS011;8330;-33.858;151.184;2023-03-21T00:22:32;5.90;;;1.63;;
16440;SDS011;8330;-33.858;151.184;2023-03-21T00:25:04;4.82;;;1.58;;
16440;SDS011;8330;-33.858;151.184;2023-03-21T00:27:36;5.70;;;1.70;;
16440;SDS011;8330;-33.858;151.184;2023-03-21T00:30:08;6.15;;;1.15;;
16440;SDS011;8330;-33.858;151.184;2023-03-21T00:32:42;4.88;;;1.30;;
16440;SDS011;8330;-33.858;151.184;2023-03-21T00:35:15;7.00;;;1.63;;
16440;SDS011;8330;-33.858;151.184;2023-03-21T00:37:47;4.13;;;1.48;;
16440;SDS011;8330;-33.858;151.184;2023-03-21T00:40:18;7.72;;;1.70;;
16440;SDS011;8330;-33.858;151.184;2023-03-21T00:42:49;6.47;;;1.33;;
16440;SDS011;8330;-33.858;151.184;2023-03-21T00:45:20;5.63;;;1.60;;
16440;SDS011;8330;-33.858;151.184;2023-03-21T00:47:55;6.03;;;1.50;;
16440;SDS011;8330;-33.858;151.184;2023-03-21T00:50:26;10.35;;;2.17;;
16440;SDS011;8330;-33.858;151.184;2023-03-21T00:52:57;7.85;;;1.20;;
16440;SDS011;8330;-33.858;151.184;2023-03-21T00:55:28;4.97;;;1.60;;
16440;SDS011;8330;-33.858;151.184;2023-03-21T00:58:00;5.50;;;1.40;;
16440;SDS011;8330;-33.858;151.184;2023-03-21T01:00:32;5.22;;;1.50;;
16440;SDS011;8330;-33.858;151.184;2023-03-21T01:03:07;7.28;;;1.60;;
16440;SDS011;8330;-33.858;151.184;2023-03-21T01:05:40;6.55;;;1.60;;
16440;SDS011;8330;-33.858;151.184;2023-03-21T01:08:32;6.32;;;1.60;;
16440;SDS011;8330;-33.858;151.184;2023-03-21T01:11:05;6.95;;;1.42;;
16440;SDS011;8330;-33.858;151.184;2023-03-21T01:13:37;4.25;;;1.35;;
16440;SDS011;8330;-33.858;151.184;2023-03-21T01:16:09;4.25;;;1.50;;
16440;SDS011;8330;-33.858;151.184;2023-03-21T01:18:42;6.03;;;1.55;;
16440;SDS011;8330;-33.858;151.184;2023-03-21T01:21:13;6.75;;;1.63;;
16440;SDS011;8330;-33.858;151.184;2023-03-21T01:23:45;8.85;;;1.85;;
16440;SDS011;8330;-33.858;151.184;2023-03-21T01:26:16;6.95;;;1.73;;
16440;SDS011;8330;-33.858;151.184;2023-03-21T01:28:47;8.30;;;1.65;;
16440;SDS011;8330;-33.858;151.184;2023-03-21T01:31:18;7.47;;;1.75;;
16440;SDS011;8330;-33.858;151.184;2023-03-21T01:33:51;8.10;;;1.75;;
16440;SDS011;8330;-33.858;151.184;2023-03-21T01:36:23;8.45;;;1.63;;
16440;SDS011;8330;-33.858;151.184;2023-03-21T01:38:54;7.38;;;1.90;;
16440;SDS011;8330;-33.858;151.184;2023-03-21T01:41:28;6.03;;;1.40;;
16440;SDS011;8330;-33.858;151.184;2023-03-21T01:44:01;10.63;;;1.92;;
16440;SDS011;8330;-33.858;151.184;2023-03-21T01:46:37;6.00;;;1.90;;
16440;SDS011;8330;-33.858;151.184;2023-03-21T01:49:15;7.38;;;1.85;;
16440;SDS011;8330;-33.858;151.184;2023-03-21T01:51:50;7.05;;;1.65;;
16440;SDS011;8330;-33.858;151.184;2023-03-21T01:54:27;6.72;;;1.80;;
16440;SDS011;8330;-33.858;151.184;2023-03-21T01:57:02;9.50;;;1.77;;
16440;SDS011;8330;-33.858;151.184;2023-03-21T01:59:37;7.95;;;1.80;;
16440;SDS011;8330;-33.858;151.184;2023-03-21T02:02:13;8.95;;;1.50;;
16440;SDS011;8330;-33.858;151.184;2023-03-21T02:04:52;4.57;;;1.50;;
16440;SDS011;8330;-33.858;151.184;2023-03-21T02:07:25;5.05;;;1.55;;
16440;SDS011;8330;-33.858;151.184;2023-03-21T02:10:01;10.55;;;1.85;;
16440;SDS011;8330;-33.858;151.184;2023-03-21T02:12:35;5.82;;;1.63;;
16440;SDS011;8330;-33.858;151.184;2023-03-21T02:15:10;8.82;;;1.55;;
16440;SDS011;8330;-33.858;151.184;2023-03-21T02:17:43;5.13;;;1.30;;
16440;SDS011;8330;-33.858;151.184;2023-03-21T02:26:45;7.75;;;1.63;;
16440;SDS011;8330;-33.858;151.184;2023-03-21T02:32:42;7.10;;;1.60;;
16440;SDS011;8330;-33.858;151.184;2023-03-21T02:35:28;6.38;;;1.38;;
16440;SDS011;8330;-33.858;151.184;2023-03-21T02:38:20;6.60;;;1.48;;
16440;SDS011;8330;-33.858;151.184;2023-03-21T02:41:00;6.07;;;1.40;;
16440;SDS011;8330;-33.858;151.184;2023-03-21T02:43:36;7.60;;;1.42;;
16440;SDS011;8330;-33.858;151.184;2023-03-21T02:46:13;3.00;;;1.10;;
16440;SDS011;8330;-33.858;151.184;2023-03-21T02:48:50;5.90;;;1.50;;
16440;SDS011;8330;-33.858;151.184;2023-03-21T02:51:26;6.05;;;1.10;;
16440;SDS011;8330;-33.858;151.184;2023-03-21T02:54:03;5.82;;;1.20;;
16440;SDS011;8330;-33.858;151.184;2023-03-21T02:56:37;6.75;;;1.30;;
16440;SDS011;8330;-33.858;151.184;2023-03-21T02:59:09;6.68;;;1.58;;
16440;SDS011;8330;-33.858;151.184;2023-03-21T03:01:41;6.40;;;1.40;;
16440;SDS011;8330;-33.858;151.184;2023-03-21T03:04:18;5.93;;;1.50;;
16440;SDS011;8330;-33.858;151.184;2023-03-21T03:07:01;8.02;;;1.77;;
16440;SDS011;8330;-33.858;151.184;2023-03-21T03:09:50;5.78;;;1.13;;
16440;SDS011;8330;-33.858;151.184;2023-03-21T03:12:32;7.35;;;1.30;;
16440;SDS011;8330;-33.858;151.184;2023-03-21T03:15:12;6.55;;;1.45;;
16440;SDS011;8330;-33.858;151.184;2023-03-21T03:17:55;6.88;;;1.42;;
16440;SDS011;8330;-33.858;151.184;2023-03-21T03:20:36;9.90;;;1.95;;
16440;SDS011;8330;-33.858;151.184;2023-03-21T03:23:16;12.07;;;2.05;;
16440;SDS011;8330;-33.858;151.184;2023-03-21T03:25:59;9.45;;;1.77;;
16440;SDS011;8330;-33.858;151.184;2023-03-21T03:28:34;5.88;;;1.40;;
16440;SDS011;8330;-33.858;151.184;2023-03-21T03:31:07;6.47;;;1.67;;
16440;SDS011;8330;-33.858;151.184;2023-03-21T03:33:42;6.63;;;1.40;;
16440;SDS011;8330;-33.858;151.184;2023-03-21T03:36:17;4.75;;;1.35;;
16440;SDS011;8330;-33.858;151.184;2023-03-21T03:38:49;5.38;;;1.10;;
16440;SDS011;8330;-33.858;151.184;2023-03-21T03:41:24;4.57;;;1.20;;
16440;SDS011;8330;-33.858;151.184;2023-03-21T03:43:59;9.20;;;1.45;;
16440;SDS011;8330;-33.858;151.184;2023-03-21T03:46:33;5.15;;;1.40;;
16440;SDS011;8330;-33.858;151.184;2023-03-21T03:49:08;3.95;;;1.38;;
16440;SDS011;8330;-33.858;151.184;2023-03-21T03:51:45;6.50;;;1.40;;
16440;SDS011;8330;-33.858;151.184;2023-03-21T03:54:23;3.80;;;1.20;;
16440;SDS011;8330;-33.858;151.184;2023-03-21T03:57:02;6.45;;;1.40;;
16440;SDS011;8330;-33.858;151.184;2023-03-21T03:59:35;5.10;;;1.30;;
16440;SDS011;8330;-33.858;151.184;2023-03-21T04:02:07;6.40;;;1.70;;
16440;SDS011;8330;-33.858;151.184;2023-03-21T04:04:38;5.05;;;1.33;;
16440;SDS011;8330;-33.858;151.184;2023-03-21T04:07:09;5.90;;;1.40;;
16440;SDS011;8330;-33.858;151.184;2023-03-21T04:09:41;5.82;;;1.35;;
16440;SDS011;8330;-33.858;151.184;2023-03-21T04:12:16;8.07;;;1.55;;
16440;SDS011;8330;-33.858;151.184;2023-03-21T04:14:47;6.55;;;1.75;;
16440;SDS011;8330;-33.858;151.184;2023-03-21T04:17:18;6.63;;;1.52;;
16440;SDS011;8330;-33.858;151.184;2023-03-21T04:19:50;8.98;;;1.80;;
16440;SDS011;8330;-33.858;151.184;2023-03-21T04:22:21;5.60;;;1.55;;
16440;SDS011;8330;-33.858;151.184;2023-03-21T04:24:54;5.45;;;1.50;;
16440;SDS011;8330;-33.858;151.184;2023-03-21T04:27:28;7.40;;;1.42;;
16440;SDS011;8330;-33.858;151.184;2023-03-21T04:29:59;5.18;;;1.35;;
16440;SDS011;8330;-33.858;151.184;2023-03-21T04:32:31;5.10;;;1.40;;
16440;SDS011;8330;-33.858;151.184;2023-03-21T04:35:05;7.68;;;1.77;;
16440;SDS011;8330;-33.858;151.184;2023-03-21T04:37:37;7.10;;;1.42;;
16440;SDS011;8330;-33.858;151.184;2023-03-21T04:40:08;5.05;;;1.70;;
16440;SDS011;8330;-33.858;151.184;2023-03-21T04:42:45;5.75;;;1.65;;
16440;SDS011;8330;-33.858;151.184;2023-03-21T04:45:16;7.45;;;1.38;;
16440;SDS011;8330;-33.858;151.184;2023-03-21T04:47:47;10.25;;;1.67;;
16440;SDS011;8330;-33.858;151.184;2023-03-21T04:50:23;10.98;;;1.60;;
16440;SDS011;8330;-33.858;151.184;2023-03-21T04:52:54;6.35;;;1.50;;
16440;SDS011;8330;-33.858;151.184;2023-03-21T04:55:25;5.72;;;1.20;;
16440;SDS011;8330;-33.858;151.184;2023-03-21T04:58:00;7.57;;;1.40;;
16440;SDS011;8330;-33.858;151.184;2023-03-21T05:00:32;8.48;;;1.42;;
16440;SDS011;8330;-33.858;151.184;2023-03-21T05:03:04;8.10;;;1.75;;
16440;SDS011;8330;-33.858;151.184;2023-03-21T05:05:36;5.68;;;1.55;;
16440;SDS011;8330;-33.858;151.184;2023-03-21T05:08:08;6.68;;;1.77;;
16440;SDS011;8330;-33.858;151.184;2023-03-21T05:10:42;6.40;;;1.35;;
16440;SDS011;8330;-33.858;151.184;2023-03-21T05:13:18;5.30;;;1.20;;
16440;SDS011;8330;-33.858;151.184;2023-03-21T05:15:50;7.45;;;1.95;;
16440;SDS011;8330;-33.858;151.184;2023-03-21T05:18:21;6.85;;;1.65;;
16440;SDS011;8330;-33.858;151.184;2023-03-21T05:20:52;4.93;;;1.42;;
16440;SDS011;8330;-33.858;151.184;2023-03-21T05:23:29;6.53;;;1.70;;
16440;SDS011;8330;-33.858;151.184;2023-03-21T05:26:04;5.32;;;1.40;;
16440;SDS011;8330;-33.858;151.184;2023-03-21T05:28:38;5.28;;;1.40;;
16440;SDS011;8330;-33.858;151.184;2023-03-21T05:31:09;4.15;;;1.40;;
16440;SDS011;8330;-33.858;151.184;2023-03-21T05:33:41;3.47;;;1.10;;
16440;SDS011;8330;-33.858;151.184;2023-03-21T05:36:18;5.18;;;1.08;;
16440;SDS011;8330;-33.858;151.184;2023-03-21T05:38:50;5.72;;;1.38;;
16440;SDS011;8330;-33.858;151.184;2023-03-21T05:41:22;4.32;;;1.25;;
16440;SDS011;8330;-33.858;151.184;2023-03-21T05:43:55;10.02;;;1.38;;
16440;SDS011;8330;-33.858;151.184;2023-03-21T05:46:26;5.70;;;1.40;;
16440;SDS011;8330;-33.858;151.184;2023-03-21T05:48:57;4.88;;;1.30;;
16440;SDS011;8330;-33.858;151.184;2023-03-21T05:51:28;5.78;;;1.35;;
16440;SDS011;8330;-33.858;151.184;2023-03-21T05:53:59;5.10;;;1.40;;
16440;SDS011;8330;-33.858;151.184;2023-03-21T05:56:31;4.15;;;1.23;;
16440;SDS011;8330;-33.858;151.184;2023-03-21T05:59:05;5.55;;;1.42;;
16440;SDS011;8330;-33.858;151.184;2023-03-21T06:01:36;8.95;;;1.60;;
16440;SDS011;8330;-33.858;151.184;2023-03-21T06:04:07;6.53;;;1.50;;
16440;SDS011;8330;-33.858;151.184;2023-03-21T06:06:39;4.25;;;1.30;;
16440;SDS011;8330;-33.858;151.184;2023-03-21T06:09:11;8.63;;;1.42;;
16440;SDS011;8330;-33.858;151.184;2023-03-21T06:11:45;4.28;;;1.20;;
16440;SDS011;8330;-33.858;151.184;2023-03-21T06:14:19;6.28;;;1.35;;
16440;SDS011;8330;-33.858;151.184;2023-03-21T06:16:51;6.75;;;1.33;;
16440;SDS011;8330;-33.858;151.184;2023-03-21T06:19:23;7.13;;;1.50;;
16440;SDS011;8330;-33.858;151.184;2023-03-21T06:21:54;9.50;;;1.75;;
16440;SDS011;8330;-33.858;151.184;2023-03-21T06:24:25;6.72;;;1.35;;
16440;SDS011;8330;-33.858;151.184;2023-03-21T06:26:57;5.82;;;1.23;;
16440;SDS011;8330;-33.858;151.184;2023-03-21T06:29:31;4.82;;;1.23;;
16440;SDS011;8330;-33.858;151.184;2023-03-21T06:32:04;6.18;;;1.35;;
16440;SDS011;8330;-33.858;151.184;2023-03-21T06:34:38;6.40;;;1.58;;
16440;SDS011;8330;-33.858;151.184;2023-03-21T06:37:09;5.32;;;1.38;;
16440;SDS011;8330;-33.858;151.184;2023-03-21T06:39:44;5.50;;;1.48;;
16440;SDS011;8330;-33.858;151.184;2023-03-21T06:42:16;4.32;;;1.40;;
16440;SDS011;8330;-33.858;151.184;2023-03-21T06:44:50;4.82;;;1.35;;
16440;SDS011;8330;-33.858;151.184;2023-03-21T06:47:21;7.18;;;1.65;;
16440;SDS011;8330;-33.858;151.184;2023-03-21T06:49:52;5.28;;;1.42;;
16440;SDS011;8330;-33.858;151.184;2023-03-21T06:52:23;5.25;;;1.25;;
16440;SDS011;8330;-33.858;151.184;2023-03-21T06:54:54;4.28;;;1.42;;
16440;SDS011;8330;-33.858;151.184;2023-03-21T06:57:26;6.60;;;1.48;;
16440;SDS011;8330;-33.858;151.184;2023-03-21T06:59:59;4.07;;;1.35;;
16440;SDS011;8330;-33.858;151.184;2023-03-21T07:02:30;5.72;;;1.45;;
16440;SDS011;8330;-33.858;151.184;2023-03-21T07:05:02;7.45;;;1.25;;
16440;SDS011;8330;-33.858;151.184;2023-03-21T07:07:33;4.10;;;1.00;;
16440;SDS011;8330;-33.858;151.184;2023-03-21T07:10:07;4.38;;;1.13;;
16440;SDS011;8330;-33.858;151.184;2023-03-21T07:12:38;2.50;;;1.02;;
16440;SDS011;8330;-33.858;151.184;2023-03-21T07:15:12;8.35;;;1.40;;
16440;SDS011;8330;-33.858;151.184;2023-03-21T07:17:43;4.15;;;1.00;;
16440;SDS011;8330;-33.858;151.184;2023-03-21T07:20:15;5.43;;;1.00;;
16440;SDS011;8330;-33.858;151.184;2023-03-21T07:22:46;6.60;;;1.40;;
16440;SDS011;8330;-33.858;151.184;2023-03-21T07:25:17;6.43;;;2.03;;
16440;SDS011;8330;-33.858;151.184;2023-03-21T07:27:49;4.95;;;1.48;;
16440;SDS011;8330;-33.858;151.184;2023-03-21T07:30:22;5.15;;;1.00;;
16440;SDS011;8330;-33.858;151.184;2023-03-21T07:32:53;5.93;;;1.05;;
16440;SDS011;8330;-33.858;151.184;2023-03-21T07:35:24;5.07;;;1.42;;
16440;SDS011;8330;-33.858;151.184;2023-03-21T07:37:55;4.03;;;1.13;;
16440;SDS011;8330;-33.858;151.184;2023-03-21T07:40:27;5.30;;;1.15;;
16440;SDS011;8330;-33.858;151.184;2023-03-21T07:42:58;4.07;;;1.15;;
16440;SDS011;8330;-33.858;151.184;2023-03-21T07:45:31;5.93;;;1.42;;
16440;SDS011;8330;-33.858;151.184;2023-03-21T07:48:03;4.90;;;1.50;;
16440;SDS011;8330;-33.858;151.184;2023-03-21T07:50:34;6.93;;;1.55;;
16440;SDS011;8330;-33.858;151.184;2023-03-21T07:53:05;5.25;;;1.55;;
16440;SDS011;8330;-33.858;151.184;2023-03-21T07:55:37;6.22;;;1.63;;
16440;SDS011;8330;-33.858;151.184;2023-03-21T07:58:08;5.13;;;1.20;;
16440;SDS011;8330;-33.858;151.184;2023-03-21T08:00:41;5.32;;;1.40;;
16440;SDS011;8330;-33.858;151.184;2023-03-21T08:03:12;6.82;;;1.20;;
16440;SDS011;8330;-33.858;151.184;2023-03-21T08:05:43;4.03;;;1.20;;
16440;SDS011;8330;-33.858;151.184;2023-03-21T08:08:17;6.32;;;1.50;;
16440;SDS011;8330;-33.858;151.184;2023-03-21T08:10:49;4.18;;;1.23;;
16440;SDS011;8330;-33.858;151.184;2023-03-21T08:13:20;5.30;;;1.35;;
16440;SDS011;8330;-33.858;151.184;2023-03-21T08:15:53;3.85;;;1.10;;
16440;SDS011;8330;-33.858;151.184;2023-03-21T08:18:25;5.18;;;1.55;;
16440;SDS011;8330;-33.858;151.184;2023-03-21T08:21:00;4.05;;;1.15;;
16440;SDS011;8330;-33.858;151.184;2023-03-21T08:23:34;2.70;;;1.05;;
16440;SDS011;8330;-33.858;151.184;2023-03-21T08:26:05;3.33;;;1.10;;
16440;SDS011;8330;-33.858;151.184;2023-03-21T08:28:36;3.75;;;1.05;;
16440;SDS011;8330;-33.858;151.184;2023-03-21T08:31:10;6.55;;;1.38;;
16440;SDS011;8330;-33.858;151.184;2023-03-21T08:33:43;4.63;;;1.10;;
16440;SDS011;8330;-33.858;151.184;2023-03-21T08:36:16;4.82;;;1.23;;
16440;SDS011;8330;-33.858;151.184;2023-03-21T08:38:47;5.68;;;1.40;;
16440;SDS011;8330;-33.858;151.184;2023-03-21T08:41:22;6.70;;;1.27;;
16440;SDS011;8330;-33.858;151.184;2023-03-21T08:43:53;4.18;;;0.88;;
16440;SDS011;8330;-33.858;151.184;2023-03-21T08:46:27;5.45;;;0.88;;
16440;SDS011;8330;-33.858;151.184;2023-03-21T08:48:58;4.82;;;0.90;;
16440;SDS011;8330;-33.858;151.184;2023-03-21T08:51:29;5.22;;;1.20;;
16440;SDS011;8330;-33.858;151.184;2023-03-21T08:54:02;4.05;;;1.08;;
16440;SDS011;8330;-33.858;151.184;2023-03-21T08:56:33;5.03;;;1.17;;
16440;SDS011;8330;-33.858;151.184;2023-03-21T08:59:07;2.80;;;0.93;;
16440;SDS011;8330;-33.858;151.184;2023-03-21T09:01:40;5.43;;;1.20;;
16440;SDS011;8330;-33.858;151.184;2023-03-21T09:04:12;4.22;;;1.02;;
16440;SDS011;8330;-33.858;151.184;2023-03-21T09:06:44;4.63;;;1.10;;
16440;SDS011;8330;-33.858;151.184;2023-03-21T09:09:17;6.53;;;1.10;;
16440;SDS011;8330;-33.858;151.184;2023-03-21T09:11:48;4.10;;;1.10;;
16440;SDS011;8330;-33.858;151.184;2023-03-21T09:14:19;2.95;;;1.13;;
16440;SDS011;8330;-33.858;151.184;2023-03-21T09:16:53;4.03;;;1.10;;
16440;SDS011;8330;-33.858;151.184;2023-03-21T09:19:24;3.17;;;1.00;;
16440;SDS011;8330;-33.858;151.184;2023-03-21T09:21:55;3.30;;;1.00;;
16440;SDS011;8330;-33.858;151.184;2023-03-21T09:24:26;5.38;;;1.35;;
16440;SDS011;8330;-33.858;151.184;2023-03-21T09:26:58;3.45;;;1.08;;
16440;SDS011;8330;-33.858;151.184;2023-03-21T09:29:30;3.33;;;0.90;;
16440;SDS011;8330;-33.858;151.184;2023-03-21T09:32:03;3.75;;;1.00;;
16440;SDS011;8330;-33.858;151.184;2023-03-21T09:34:34;5.85;;;1.20;;
16440;SDS011;8330;-33.858;151.184;2023-03-21T09:37:06;2.92;;;1.10;;
16440;SDS011;8330;-33.858;151.184;2023-03-21T09:39:38;5.85;;;1.30;;
16440;SDS011;8330;-33.858;151.184;2023-03-21T09:42:14;4.00;;;1.10;;
16440;SDS011;8330;-33.858;151.184;2023-03-21T09:45:02;4.15;;;1.23;;
16440;SDS011;8330;-33.858;151.184;2023-03-21T09:47:41;7.95;;;1.55;;
16440;SDS011;8330;-33.858;151.184;2023-03-21T09:50:18;2.92;;;0.75;;
16440;SDS011;8330;-33.858;151.184;2023-03-21T09:52:53;1.90;;;0.90;;
16440;SDS011;8330;-33.858;151.184;2023-03-21T09:55:27;1.65;;;0.77;;
16440;SDS011;8330;-33.858;151.184;2023-03-21T09:58:02;4.53;;;0.95;;
16440;SDS011;8330;-33.858;151.184;2023-03-21T10:00:37;2.75;;;0.80;;
16440;SDS011;8330;-33.858;151.184;2023-03-21T10:03:20;3.72;;;0.90;;
16440;SDS011;8330;-33.858;151.184;2023-03-21T10:05:53;2.45;;;0.70;;
16440;SDS011;8330;-33.858;151.184;2023-03-21T10:08:27;3.53;;;0.88;;
16440;SDS011;8330;-33.858;151.184;2023-03-21T10:11:02;4.22;;;0.90;;
16440;SDS011;8330;-33.858;151.184;2023-03-21T10:13:41;3.03;;;0.80;;
16440;SDS011;8330;-33.858;151.184;2023-03-21T10:16:18;2.10;;;0.90;;
16440;SDS011;8330;-33.858;151.184;2023-03-21T10:18:58;3.80;;;0.82;;
16440;SDS011;8330;-33.858;151.184;2023-03-21T10:21:55;4.68;;;0.90;;
16440;SDS011;8330;-33.858;151.184;2023-03-21T10:24:32;4.55;;;0.98;;
16440;SDS011;8330;-33.858;151.184;2023-03-21T10:27:07;2.45;;;0.65;;
16440;SDS011;8330;-33.858;151.184;2023-03-21T10:29:41;3.88;;;1.00;;
16440;SDS011;8330;-33.858;151.184;2023-03-21T10:32:22;3.58;;;0.95;;
16440;SDS011;8330;-33.858;151.184;2023-03-21T10:34:56;3.75;;;0.90;;
16440;SDS011;8330;-33.858;151.184;2023-03-21T10:37:29;3.45;;;0.80;;
16440;SDS011;8330;-33.858;151.184;2023-03-21T10:40:02;3.70;;;0.90;;
16440;SDS011;8330;-33.858;151.184;2023-03-21T10:42:34;3.30;;;0.77;;
16440;SDS011;8330;-33.858;151.184;2023-03-21T10:45:05;3.78;;;0.80;;
16440;SDS011;8330;-33.858;151.184;2023-03-21T10:47:46;3.88;;;0.73;;
16440;SDS011;8330;-33.858;151.184;2023-03-21T10:50:22;5.90;;;1.00;;
16440;SDS011;8330;-33.858;151.184;2023-03-21T10:52:58;3.17;;;0.80;;
16440;SDS011;8330;-33.858;151.184;2023-03-21T10:55:30;4.30;;;0.95;;
16440;SDS011;8330;-33.858;151.184;2023-03-21T10:58:05;3.75;;;0.85;;
16440;SDS011;8330;-33.858;151.184;2023-03-21T11:00:39;2.80;;;0.80;;
16440;SDS011;8330;-33.858;151.184;2023-03-21T11:03:16;4.57;;;1.05;;
16440;SDS011;8330;-33.858;151.184;2023-03-21T11:05:56;5.65;;;0.77;;
16440;SDS011;8330;-33.858;151.184;2023-03-21T11:08:35;3.40;;;0.90;;
16440;SDS011;8330;-33.858;151.184;2023-03-21T11:11:09;3.25;;;0.80;;
16440;SDS011;8330;-33.858;151.184;2023-03-21T11:13:54;4.20;;;0.85;;
16440;SDS011;8330;-33.858;151.184;2023-03-21T11:16:35;2.70;;;0.82;;
16440;SDS011;8330;-33.858;151.184;2023-03-21T11:19:14;4.55;;;0.88;;
16440;SDS011;8330;-33.858;151.184;2023-03-21T11:21:48;2.97;;;0.65;;
16440;SDS011;8330;-33.858;151.184;2023-03-21T11:24:20;3.58;;;0.80;;
16440;SDS011;8330;-33.858;151.184;2023-03-21T11:26:52;3.85;;;0.95;;
16440;SDS011;8330;-33.858;151.184;2023-03-21T11:29:34;3.88;;;0.95;;
16440;SDS011;8330;-33.858;151.184;2023-03-21T11:32:09;3.35;;;0.70;;
16440;SDS011;8330;-33.858;151.184;2023-03-21T11:34:49;4.57;;;0.88;;
16440;SDS011;8330;-33.858;151.184;2023-03-21T11:37:26;3.40;;;0.80;;
16440;SDS011;8330;-33.858;151.184;2023-03-21T11:40:05;4.72;;;1.10;;
16440;SDS011;8330;-33.858;151.184;2023-03-21T11:42:47;3.53;;;1.00;;
16440;SDS011;8330;-33.858;151.184;2023-03-21T11:45:19;4.35;;;1.05;;
16440;SDS011;8330;-33.858;151.184;2023-03-21T11:47:53;6.57;;;1.20;;
16440;SDS011;8330;-33.858;151.184;2023-03-21T11:50:28;3.80;;;0.95;;
16440;SDS011;8330;-33.858;151.184;2023-03-21T11:53:10;5.00;;;1.00;;
16440;SDS011;8330;-33.858;151.184;2023-03-21T11:55:54;3.65;;;1.02;;
16440;SDS011;8330;-33.858;151.184;2023-03-21T11:58:38;2.70;;;0.90;;
16440;SDS011;8330;-33.858;151.184;2023-03-21T12:01:15;2.80;;;0.93;;
16440;SDS011;8330;-33.858;151.184;2023-03-21T12:03:58;5.40;;;0.90;;
16440;SDS011;8330;-33.858;151.184;2023-03-21T12:06:38;4.38;;;1.15;;
16440;SDS011;8330;-33.858;151.184;2023-03-21T12:09:22;4.22;;;0.90;;
16440;SDS011;8330;-33.858;151.184;2023-03-21T12:12:13;3.05;;;1.00;;
16440;SDS011;8330;-33.858;151.184;2023-03-21T12:15:09;3.75;;;1.20;;
16440;SDS011;8330;-33.858;151.184;2023-03-21T12:17:48;4.25;;;1.08;;
16440;SDS011;8330;-33.858;151.184;2023-03-21T12:20:28;4.35;;;0.88;;
16440;SDS011;8330;-33.858;151.184;2023-03-21T12:23:25;4.15;;;1.30;;
16440;SDS011;8330;-33.858;151.184;2023-03-21T12:26:10;5.18;;;0.90;;
16440;SDS011;8330;-33.858;151.184;2023-03-21T12:28:51;4.20;;;1.00;;
16440;SDS011;8330;-33.858;151.184;2023-03-21T12:31:38;6.22;;;1.17;;
16440;SDS011;8330;-33.858;151.184;2023-03-21T12:34:24;3.50;;;1.10;;
16440;SDS011;8330;-33.858;151.184;2023-03-21T12:37:12;5.72;;;1.00;;
16440;SDS011;8330;-33.858;151.184;2023-03-21T12:39:52;5.05;;;1.08;;
16440;SDS011;8330;-33.858;151.184;2023-03-21T12:42:41;3.67;;;1.13;;
16440;SDS011;8330;-33.858;151.184;2023-03-21T12:45:25;5.68;;;1.10;;
16440;SDS011;8330;-33.858;151.184;2023-03-21T12:48:02;3.13;;;1.02;;
16440;SDS011;8330;-33.858;151.184;2023-03-21T12:50:43;4.55;;;1.33;;
16440;SDS011;8330;-33.858;151.184;2023-03-21T12:53:24;4.53;;;1.10;;
16440;SDS011;8330;-33.858;151.184;2023-03-21T12:56:04;4.80;;;0.88;;
16440;SDS011;8330;-33.858;151.184;2023-03-21T12:58:44;3.90;;;0.93;;
16440;SDS011;8330;-33.858;151.184;2023-03-21T13:01:20;4.80;;;1.05;;
16440;SDS011;8330;-33.858;151.184;2023-03-21T13:03:56;3.65;;;1.20;;
16440;SDS011;8330;-33.858;151.184;2023-03-21T13:06:36;6.10;;;1.02;;
16440;SDS011;8330;-33.858;151.184;2023-03-21T13:09:11;5.18;;;1.10;;
16440;SDS011;8330;-33.858;151.184;2023-03-21T13:11:50;3.60;;;0.90;;
16440;SDS011;8330;-33.858;151.184;2023-03-21T13:14:29;3.60;;;0.93;;
16440;SDS011;8330;-33.858;151.184;2023-03-21T13:17:10;3.85;;;0.80;;
16440;SDS011;8330;-33.858;151.184;2023-03-21T13:19:50;3.00;;;0.70;;
16440;SDS011;8330;-33.858;151.184;2023-03-21T13:22:27;1.75;;;0.70;;
16440;SDS011;8330;-33.858;151.184;2023-03-21T13:25:02;6.43;;;1.17;;
16440;SDS011;8330;-33.858;151.184;2023-03-21T13:27:34;3.85;;;1.08;;
16440;SDS011;8330;-33.858;151.184;2023-03-21T13:30:16;2.40;;;0.75;;
16440;SDS011;8330;-33.858;151.184;2023-03-21T13:32:49;4.15;;;0.88;;
16440;SDS011;8330;-33.858;151.184;2023-03-21T13:35:24;6.40;;;1.20;;
16440;SDS011;8330;-33.858;151.184;2023-03-21T13:38:04;4.75;;;1.27;;
16440;SDS011;8330;-33.858;151.184;2023-03-21T13:40:40;3.53;;;1.05;;
16440;SDS011;8330;-33.858;151.184;2023-03-21T13:43:31;3.75;;;0.95;;
16440;SDS011;8330;-33.858;151.184;2023-03-21T13:46:10;3.67;;;0.88;;
16440;SDS011;8330;-33.858;151.184;2023-03-21T13:48:43;3.03;;;0.75;;
16440;SDS011;8330;-33.858;151.184;2023-03-21T13:51:39;4.28;;;0.70;;
16440;SDS011;8330;-33.858;151.184;2023-03-21T13:54:16;3.50;;;0.73;;
16440;SDS011;8330;-33.858;151.184;2023-03-21T13:56:50;4.03;;;0.75;;
16440;SDS011;8330;-33.858;151.184;2023-03-21T13:59:37;2.35;;;0.90;;
16440;SDS011;8330;-33.858;151.184;2023-03-21T14:02:26;3.97;;;0.80;;
16440;SDS011;8330;-33.858;151.184;2023-03-21T14:05:00;4.95;;;0.75;;
16440;SDS011;8330;-33.858;151.184;2023-03-21T14:07:32;4.97;;;0.82;;
16440;SDS011;8330;-33.858;151.184;2023-03-21T14:10:05;3.83;;;0.95;;
16440;SDS011;8330;-33.858;151.184;2023-03-21T14:12:46;4.47;;;1.10;;
16440;SDS011;8330;-33.858;151.184;2023-03-21T14:15:18;3.10;;;0.80;;
16440;SDS011;8330;-33.858;151.184;2023-03-21T14:17:53;3.78;;;0.90;;
16440;SDS011;8330;-33.858;151.184;2023-03-21T14:20:26;4.70;;;0.98;;
16440;SDS011;8330;-33.858;151.184;2023-03-21T14:22:58;4.88;;;0.90;;
16440;SDS011;8330;-33.858;151.184;2023-03-21T14:25:32;4.07;;;0.73;;
16440;SDS011;8330;-33.858;151.184;2023-03-21T14:28:07;3.88;;;0.90;;
16440;SDS011;8330;-33.858;151.184;2023-03-21T14:30:44;5.75;;;0.88;;
16440;SDS011;8330;-33.858;151.184;2023-03-21T14:33:21;6.10;;;1.05;;
16440;SDS011;8330;-33.858;151.184;2023-03-21T14:35:56;4.55;;;1.10;;
16440;SDS011;8330;-33.858;151.184;2023-03-21T14:38:32;4.07;;;1.00;;
16440;SDS011;8330;-33.858;151.184;2023-03-21T14:41:05;2.88;;;1.00;;
16440;SDS011;8330;-33.858;151.184;2023-03-21T14:44:07;4.93;;;0.90;;
16440;SDS011;8330;-33.858;151.184;2023-03-21T14:46:47;5.22;;;0.90;;
16440;SDS011;8330;-33.858;151.184;2023-03-21T14:49:23;4.90;;;0.93;;
16440;SDS011;8330;-33.858;151.184;2023-03-21T14:51:55;2.97;;;1.10;;
16440;SDS011;8330;-33.858;151.184;2023-03-21T14:54:27;4.55;;;1.17;;
16440;SDS011;8330;-33.858;151.184;2023-03-21T14:57:00;3.95;;;1.00;;
16440;SDS011;8330;-33.858;151.184;2023-03-21T14:59:33;3.30;;;0.93;;
16440;SDS011;8330;-33.858;151.184;2023-03-21T15:02:10;3.70;;;0.82;;
16440;SDS011;8330;-33.858;151.184;2023-03-21T15:04:48;4.43;;;1.10;;
16440;SDS011;8330;-33.858;151.184;2023-03-21T15:07:23;4.90;;;1.05;;
16440;SDS011;8330;-33.858;151.184;2023-03-21T15:09:57;10.60;;;0.77;;
16440;SDS011;8330;-33.858;151.184;2023-03-21T15:12:29;2.85;;;0.90;;
16440;SDS011;8330;-33.858;151.184;2023-03-21T15:15:01;3.28;;;0.88;;
16440;SDS011;8330;-33.858;151.184;2023-03-21T15:17:33;6.22;;;1.00;;